Time;durP1;ratioP1;P1;durP2;ratioP2;P2;SDS_P1;SDS_P2;PMS_P1;PMS_P2;Temp;Humidity;BMP_temperature;BMP_pressure;BME280_temperature;BME280_humidity;BME280_pressure;Samples;Min_cycle;Max_cycle;Signal;HPM_P1;HPM_P2
2022/07/14 00:01:41;;;;;;;9.82;1.80;;;;;;;;;;10029061;28;20054;-68
2022/07/14 00:06:38;;;;;;;8.52;1.90;;;;;;;;;;10029378;28;20048;-68
2022/07/14 00:11:34;;;;;;;10.23;2.20;;;;;;;;;;10034706;28;20043;-70
2022/07/14 00:16:30;;;;;;;11.38;2.80;;;;;;;;;;10031462;28;20047;-70
2022/07/14 00:21:28;;;;;;;15.60;2.47;;;;;;;;;;10031442;28;20103;-70
2022/07/14 00:26:25;;;;;;;16.55;2.35;;;;;;;;;;10031947;28;20111;-68
2022/07/14 00:31:21;;;;;;;8.82;1.77;;;;;;;;;;10035272;28;20047;-68
2022/07/14 00:36:18;;;;;;;8.77;1.95;;;;;;;;;;10030558;28;20047;-68
2022/07/14 00:41:14;;;;;;;11.20;2.10;;;;;;;;;;10036065;28;20134;-69
2022/07/14 00:46:10;;;;;;;13.50;3.00;;;;;;;;;;10029959;28;20123;-69
2022/07/14 00:51:07;;;;;;;5.85;1.38;;;;;;;;;;10031160;28;20051;-68
2022/07/14 00:56:04;;;;;;;11.35;1.52;;;;;;;;;;10028593;28;20417;-68
2022/07/14 01:01:00;;;;;;;15.07;2.08;;;;;;;;;;10029900;28;20047;-70
2022/07/14 01:05:56;;;;;;;11.75;1.52;;;;;;;;;;10030338;28;20071;-68
2022/07/14 01:10:53;;;;;;;9.73;2.00;;;;;;;;;;10028812;28;20127;-71
2022/07/14 01:15:49;;;;;;;13.68;2.22;;;;;;;;;;10017050;28;20087;-69
2022/07/14 01:20:45;;;;;;;9.70;1.70;;;;;;;;;;10024758;28;20642;-70
2022/07/14 01:25:42;;;;;;;8.23;1.85;;;;;;;;;;10028494;28;20524;-68
2022/07/14 01:30:38;;;;;;;14.57;2.47;;;;;;;;;;10031297;28;20466;-70
2022/07/14 01:35:34;;;;;;;9.48;1.52;;;;;;;;;;10029074;28;20111;-69
2022/07/14 01:40:30;;;;;;;10.20;2.10;;;;;;;;;;10033077;28;20051;-69
2022/07/14 01:45:27;;;;;;;7.82;1.73;;;;;;;;;;10026003;28;20098;-69
2022/07/14 01:50:23;;;;;;;5.78;1.33;;;;;;;;;;10028435;28;20048;-69
2022/07/14 01:55:20;;;;;;;9.23;1.90;;;;;;;;;;10025706;28;20056;-69
2022/07/14 02:00:16;;;;;;;12.40;2.88;;;;;;;;;;10026901;28;20048;-69
2022/07/14 02:05:13;;;;;;;7.72;1.40;;;;;;;;;;10016116;28;20052;-70
2022/07/14 02:15:24;;;;;;;9.82;1.55;;;;;;;;;;10029194;28;20127;-68
2022/07/14 02:20:20;;;;;;;12.88;2.22;;;;;;;;;;10022908;28;20115;-69
2022/07/14 02:25:17;;;;;;;6.13;1.63;;;;;;;;;;10024569;28;20558;-68
2022/07/14 02:30:13;;;;;;;9.45;1.40;;;;;;;;;;10023578;28;20570;-68
2022/07/14 02:35:09;;;;;;;8.82;1.77;;;;;;;;;;10031094;28;20516;-68
2022/07/14 02:40:06;;;;;;;8.98;1.90;;;;;;;;;;10025398;28;20056;-69
2022/07/14 02:45:03;;;;;;;8.43;1.60;;;;;;;;;;10032211;28;20102;-69
2022/07/14 02:49:59;;;;;;;11.45;2.38;;;;;;;;;;10025623;29;20149;-70
2022/07/14 02:54:56;;;;;;;7.80;1.58;;;;;;;;;;10025206;28;20075;-68
2022/07/14 02:59:52;;;;;;;10.35;1.85;;;;;;;;;;10029714;28;20103;-69
2022/07/14 03:04:48;;;;;;;9.90;1.77;;;;;;;;;;10018419;28;20151;-69
2022/07/14 03:09:44;;;;;;;5.93;1.40;;;;;;;;;;10024611;28;20043;-69
2022/07/14 03:14:41;;;;;;;8.25;1.60;;;;;;;;;;10024970;28;20135;-69
2022/07/14 03:19:37;;;;;;;9.00;1.27;;;;;;;;;;10030523;28;20084;-69
2022/07/14 03:24:33;;;;;;;9.50;1.65;;;;;;;;;;10031979;28;20071;-69
2022/07/14 03:29:30;;;;;;;8.05;1.55;;;;;;;;;;10034502;28;20056;-70
2022/07/14 03:34:26;;;;;;;7.38;1.52;;;;;;;;;;10032018;28;20071;-69
2022/07/14 03:39:22;;;;;;;7.40;1.60;;;;;;;;;;10054997;28;20510;-69
2022/07/14 03:44:19;;;;;;;12.05;1.60;;;;;;;;;;10031310;28;20748;-69
2022/07/14 03:49:16;;;;;;;10.27;1.75;;;;;;;;;;10030707;28;20510;-67
2022/07/14 03:54:12;;;;;;;9.57;2.20;;;;;;;;;;10025099;28;20048;-68
2022/07/14 03:59:10;;;;;;;8.65;1.55;;;;;;;;;;10031637;28;20051;-69
2022/07/14 04:04:07;;;;;;;11.82;1.70;;;;;;;;;;10028079;28;20045;-68
2022/07/14 04:09:03;;;;;;;11.90;2.17;;;;;;;;;;10022546;28;20056;-68
2022/07/14 04:13:59;;;;;;;12.05;1.88;;;;;;;;;;10017431;28;20478;-68
2022/07/14 04:18:56;;;;;;;9.80;2.53;;;;;;;;;;10007573;28;20501;-68
2022/07/14 04:23:52;;;;;;;9.00;1.60;;;;;;;;;;10017799;28;20052;-68
2022/07/14 04:28:48;;;;;;;10.50;2.00;;;;;;;;;;10015861;28;20067;-69
2022/07/14 04:33:46;;;;;;;7.90;1.30;;;;;;;;;;10021578;28;20047;-69
2022/07/14 04:38:42;;;;;;;6.07;1.40;;;;;;;;;;10025585;28;20054;-69
2022/07/14 04:43:42;;;;;;;9.43;1.92;;;;;;;;;;10029019;28;20050;-69
2022/07/14 04:54:13;;;;;;;9.35;1.83;;;;;;;;;;10028908;29;20052;-67
2022/07/14 04:59:09;;;;;;;11.90;1.80;;;;;;;;;;10022883;29;20059;-67
2022/07/14 05:04:06;;;;;;;7.03;1.33;;;;;;;;;;10009385;28;20068;-67
2022/07/14 05:09:03;;;;;;;5.72;1.60;;;;;;;;;;10009740;28;20529;-67
2022/07/14 05:13:59;;;;;;;7.05;1.25;;;;;;;;;;10013515;28;20510;-68
2022/07/14 05:18:55;;;;;;;7.25;1.30;;;;;;;;;;10004032;28;20063;-67
2022/07/14 05:23:52;;;;;;;7.85;1.25;;;;;;;;;;10018165;28;20044;-67
2022/07/14 05:28:49;;;;;;;9.52;1.67;;;;;;;;;;10014064;28;20676;-67
2022/07/14 05:33:46;;;;;;;5.45;0.95;;;;;;;;;;10024498;28;20151;-67
2022/07/14 05:38:42;;;;;;;6.45;0.90;;;;;;;;;;10023338;28;20048;-66
2022/07/14 05:43:39;;;;;;;7.85;0.98;;;;;;;;;;10031574;28;20051;-66
2022/07/14 05:48:37;;;;;;;12.23;1.10;;;;;;;;;;10017666;28;20081;-67
2022/07/14 05:53:33;;;;;;;4.85;1.35;;;;;;;;;;10020001;28;20087;-67
2022/07/14 05:58:30;;;;;;;6.15;1.50;;;;;;;;;;10004997;28;20090;-65
2022/07/14 06:03:27;;;;;;;6.68;0.90;;;;;;;;;;10011214;28;20127;-65
2022/07/14 06:08:26;;;;;;;6.10;1.23;;;;;;;;;;10017241;28;20136;-65
2022/07/14 06:13:26;;;;;;;5.22;0.93;;;;;;;;;;10015689;28;20076;-66
2022/07/14 06:18:23;;;;;;;10.18;1.20;;;;;;;;;;10017326;28;20048;-66
2022/07/14 06:23:20;;;;;;;8.65;1.10;;;;;;;;;;10015252;28;20055;-66
2022/07/14 06:28:17;;;;;;;9.63;1.20;;;;;;;;;;10004136;28;20036;-66
2022/07/14 06:33:16;;;;;;;7.75;1.20;;;;;;;;;;10036196;28;20044;-66
2022/07/14 06:38:13;;;;;;;5.47;1.27;;;;;;;;;;10017020;28;20051;-66
2022/07/14 06:43:19;;;;;;;4.80;0.80;;;;;;;;;;10026617;28;20666;-68
2022/07/14 06:48:37;;;;;;;5.35;0.68;;;;;;;;;;10016991;28;20047;-69
2022/07/14 06:53:39;;;;;;;3.97;0.75;;;;;;;;;;10009116;28;20052;-69
2022/07/14 06:58:36;;;;;;;3.15;0.57;;;;;;;;;;10004205;29;20744;-68
2022/07/14 07:03:32;;;;;;;7.57;1.20;;;;;;;;;;10015083;28;20568;-70
2022/07/14 07:08:29;;;;;;;3.78;0.50;;;;;;;;;;9996825;28;20132;-68
2022/07/14 07:13:29;;;;;;;3.22;0.70;;;;;;;;;;10008749;28;20067;-68
2022/07/14 07:18:33;;;;;;;3.33;0.50;;;;;;;;;;10036995;28;20126;-66
2022/07/14 07:23:54;;;;;;;7.75;2.20;;;;;;;;;;10023145;28;20054;-67
2022/07/14 07:28:53;;;;;;;5.68;0.68;;;;;;;;;;10019692;28;20051;-67
2022/07/14 07:33:58;;;;;;;3.08;0.60;;;;;;;;;;10020042;28;20048;-67
2022/07/14 07:38:54;;;;;;;5.03;0.82;;;;;;;;;;10024221;28;20089;-66
2022/07/14 07:43:51;;;;;;;4.68;0.70;;;;;;;;;;10020337;28;20052;-67
2022/07/14 07:48:47;;;;;;;7.28;0.95;;;;;;;;;;10022499;28;20173;-68
2022/07/14 07:53:43;;;;;;;5.13;0.88;;;;;;;;;;10021630;28;20048;-68
2022/07/14 07:58:40;;;;;;;4.80;0.55;;;;;;;;;;10013655;28;20044;-68
2022/07/14 08:03:36;;;;;;;4.68;0.50;;;;;;;;;;10023316;28;20083;-68
2022/07/14 08:08:40;;;;;;;3.13;0.77;;;;;;;;;;10033718;28;20130;-68
2022/07/14 08:13:36;;;;;;;4.00;0.70;;;;;;;;;;10028869;28;20420;-68
2022/07/14 08:18:32;;;;;;;3.75;0.50;;;;;;;;;;10035565;28;20043;-68
2022/07/14 08:23:29;;;;;;;5.03;0.60;;;;;;;;;;10027712;28;20075;-68
2022/07/14 08:28:25;;;;;;;7.40;1.05;;;;;;;;;;10026719;28;20048;-67
2022/07/14 08:33:21;;;;;;;3.47;0.73;;;;;;;;;;10028663;28;20428;-67
2022/07/14 08:38:18;;;;;;;1.73;0.35;;;;;;;;;;10020370;29;20579;-67
2022/07/14 08:43:14;;;;;;;4.15;1.20;;;;;;;;;;10027795;28;20036;-67
2022/07/14 08:48:11;;;;;;;4.90;0.60;;;;;;;;;;10021996;28;20507;-68
2022/07/14 08:53:09;;;;;;;3.28;0.68;;;;;;;;;;10027229;28;20110;-68
2022/07/14 08:58:05;;;;;;;1.65;0.30;;;;;;;;;;10021671;28;20071;-68
2022/07/14 09:03:01;;;;;;;3.42;0.60;;;;;;;;;;10029647;28;20079;-68
2022/07/14 09:08:17;;;;;;;4.80;0.52;;;;;;;;;;10029100;28;20055;-66
2022/07/14 09:13:15;;;;;;;6.18;0.60;;;;;;;;;;10027190;28;20090;-67
2022/07/14 09:18:22;;;;;;;5.28;0.50;;;;;;;;;;10017815;28;20079;-67
2022/07/14 09:23:26;;;;;;;2.42;0.50;;;;;;;;;;10026573;28;20703;-67
2022/07/14 09:28:26;;;;;;;2.78;0.65;;;;;;;;;;10012657;28;20043;-68
2022/07/14 09:33:22;;;;;;;5.22;0.50;;;;;;;;;;10015409;28;20071;-67
2022/07/14 09:38:20;;;;;;;5.40;0.47;;;;;;;;;;10012367;28;20649;-67
2022/07/14 09:43:17;;;;;;;3.78;0.60;;;;;;;;;;10014789;28;20063;-67
2022/07/14 09:48:14;;;;;;;3.45;0.75;;;;;;;;;;10008655;28;20742;-67
2022/07/14 09:53:19;;;;;;;3.80;0.50;;;;;;;;;;10013450;28;20106;-67
2022/07/14 09:58:16;;;;;;;1.65;0.22;;;;;;;;;;10017195;28;20084;-67
2022/07/14 10:03:12;;;;;;;4.78;0.73;;;;;;;;;;10012256;28;20056;-68
2022/07/14 10:08:09;;;;;;;3.08;0.50;;;;;;;;;;10016491;28;20059;-68
2022/07/14 10:13:06;;;;;;;1.75;0.40;;;;;;;;;;10016691;28;20417;-69
2022/07/14 10:18:08;;;;;;;1.53;0.43;;;;;;;;;;10013359;28;20056;-68
2022/07/14 10:23:04;;;;;;;2.50;0.70;;;;;;;;;;10005082;28;20058;-68
2022/07/14 10:28:01;;;;;;;3.80;0.50;;;;;;;;;;10024414;28;20299;-68
2022/07/14 10:33:02;;;;;;;5.57;0.82;;;;;;;;;;10028258;28;20106;-68
2022/07/14 10:38:23;;;;;;;3.95;0.50;;;;;;;;;;10022970;28;20059;-68
2022/07/14 10:43:22;;;;;;;4.88;0.90;;;;;;;;;;10020431;28;20047;-68
2022/07/14 10:48:31;;;;;;;6.18;0.70;;;;;;;;;;10019598;28;20077;-68
2022/07/14 10:53:29;;;;;;;3.25;0.60;;;;;;;;;;10016523;28;20941;-68
2022/07/14 10:58:26;;;;;;;4.63;0.82;;;;;;;;;;9999462;28;20105;-69
2022/07/14 11:03:32;;;;;;;4.63;0.68;;;;;;;;;;9998598;28;20191;-69
2022/07/14 11:08:29;;;;;;;6.03;0.82;;;;;;;;;;10008189;28;20480;-69
2022/07/14 11:13:25;;;;;;;3.97;0.75;;;;;;;;;;10009922;28;20576;-69
2022/07/14 11:18:28;;;;;;;2.83;0.50;;;;;;;;;;10008741;28;20056;-69
2022/07/14 11:23:30;;;;;;;3.30;0.77;;;;;;;;;;10020588;28;20082;-69
2022/07/14 11:28:29;;;;;;;8.83;0.90;;;;;;;;;;10021383;28;20484;-69
2022/07/14 11:33:31;;;;;;;3.28;0.70;;;;;;;;;;10011848;28;20571;-69
2022/07/14 11:38:28;;;;;;;4.00;0.75;;;;;;;;;;10005234;28;20040;-69
2022/07/14 11:43:28;;;;;;;6.45;1.00;;;;;;;;;;10018110;28;20086;-69
2022/07/14 11:48:29;;;;;;;3.00;0.43;;;;;;;;;;10032124;28;20093;-69
2022/07/14 11:53:27;;;;;;;3.47;0.57;;;;;;;;;;10015010;28;20106;-69
2022/07/14 11:58:24;;;;;;;3.45;0.52;;;;;;;;;;10018166;28;20076;-69
2022/07/14 12:03:20;;;;;;;3.88;0.85;;;;;;;;;;10032696;28;20154;-69
2022/07/14 12:08:20;;;;;;;3.03;0.80;;;;;;;;;;10019904;29;20437;-69
2022/07/14 12:13:20;;;;;;;4.40;0.70;;;;;;;;;;10036070;28;20412;-69
2022/07/14 12:18:17;;;;;;;2.15;0.40;;;;;;;;;;10031999;28;20433;-69
2022/07/14 12:23:14;;;;;;;5.28;0.95;;;;;;;;;;10028710;28;20063;-69
2022/07/14 12:28:12;;;;;;;3.30;0.82;;;;;;;;;;10028218;28;20095;-68
2022/07/14 12:33:08;;;;;;;2.70;0.50;;;;;;;;;;10010560;28;20200;-69
2022/07/14 12:38:05;;;;;;;3.65;0.80;;;;;;;;;;10010052;28;20067;-69
2022/07/14 12:43:13;;;;;;;2.40;0.52;;;;;;;;;;10017557;28;20052;-69
2022/07/14 12:48:11;;;;;;;6.72;1.13;;;;;;;;;;10015986;28;20095;-68
2022/07/14 12:53:07;;;;;;;3.75;0.50;;;;;;;;;;10017622;28;20083;-68
2022/07/14 12:58:13;;;;;;;2.70;0.30;;;;;;;;;;10041854;28;20475;-69
2022/07/14 13:03:10;;;;;;;4.28;1.00;;;;;;;;;;10019420;29;20503;-69
2022/07/14 13:08:26;;;;;;;2.00;0.50;;;;;;;;;;10012498;28;20066;-68
2022/07/14 13:13:29;;;;;;;1.20;0.30;;;;;;;;;;10009343;28;20130;-69
2022/07/14 13:18:26;;;;;;;1.85;0.40;;;;;;;;;;10008403;28;20044;-69
2022/07/14 13:23:28;;;;;;;4.05;0.70;;;;;;;;;;10014185;28;20170;-69
2022/07/14 13:28:31;;;;;;;3.10;0.30;;;;;;;;;;10014759;28;20541;-68
2022/07/14 13:33:28;;;;;;;2.28;0.40;;;;;;;;;;10008914;28;20571;-69
2022/07/14 13:38:25;;;;;;;4.38;0.55;;;;;;;;;;10004295;28;20048;-69
2022/07/14 13:43:21;;;;;;;3.97;0.52;;;;;;;;;;10004623;28;20079;-69
2022/07/14 13:48:18;;;;;;;4.80;0.50;;;;;;;;;;10005897;28;20134;-69
2022/07/14 13:53:14;;;;;;;3.17;0.60;;;;;;;;;;10006130;28;20170;-69
2022/07/14 13:58:11;;;;;;;1.75;0.30;;;;;;;;;;10004463;28;20047;-68
2022/07/14 14:08:24;;;;;;;2.97;0.57;;;;;;;;;;10013399;28;20083;-69
2022/07/14 14:13:21;;;;;;;3.15;0.47;;;;;;;;;;10026150;28;20453;-69
2022/07/14 14:18:17;;;;;;;3.30;1.02;;;;;;;;;;10023058;28;20047;-69
2022/07/14 14:23:14;;;;;;;3.20;0.63;;;;;;;;;;10031250;28;20075;-68
2022/07/14 14:28:11;;;;;;;6.68;0.65;;;;;;;;;;10029697;28;20111;-68
2022/07/14 14:33:07;;;;;;;2.25;0.50;;;;;;;;;;10028106;28;20048;-69
2022/07/14 14:38:06;;;;;;;2.85;0.38;;;;;;;;;;10057466;28;20464;-69
2022/07/14 14:43:02;;;;;;;3.50;0.73;;;;;;;;;;10018484;28;20076;-68
2022/07/14 14:47:59;;;;;;;3.33;0.68;;;;;;;;;;10014238;28;20047;-68
2022/07/14 14:52:55;;;;;;;4.57;0.77;;;;;;;;;;10008155;28;20155;-69
2022/07/14 14:57:52;;;;;;;8.07;0.85;;;;;;;;;;10007079;28;20044;-68
2022/07/14 15:02:48;;;;;;;3.38;1.27;;;;;;;;;;10013318;28;20071;-68
2022/07/14 15:07:45;;;;;;;6.15;0.90;;;;;;;;;;10009875;28;20047;-69
2022/07/14 15:12:41;;;;;;;2.90;0.80;;;;;;;;;;10026428;28;20106;-68
2022/07/14 15:17:37;;;;;;;3.55;0.80;;;;;;;;;;10026448;28;20142;-69
2022/07/14 15:22:34;;;;;;;4.90;0.75;;;;;;;;;;10029209;28;20488;-69
2022/07/14 15:27:30;;;;;;;3.30;0.80;;;;;;;;;;10018626;28;20043;-69
2022/07/14 15:32:26;;;;;;;11.40;1.55;;;;;;;;;;10023613;28;20568;-68
2022/07/14 15:37:23;;;;;;;5.57;1.00;;;;;;;;;;10022883;28;20056;-68
2022/07/14 15:42:19;;;;;;;3.65;0.77;;;;;;;;;;10029364;28;20071;-69
2022/07/14 15:47:16;;;;;;;6.07;0.75;;;;;;;;;;10023173;28;20130;-69
2022/07/14 15:52:12;;;;;;;4.38;0.63;;;;;;;;;;10014798;28;20044;-68
2022/07/14 15:57:16;;;;;;;4.47;0.80;;;;;;;;;;10014048;28;20067;-67
2022/07/14 16:02:12;;;;;;;3.70;0.75;;;;;;;;;;10024852;28;20731;-67
2022/07/14 16:07:09;;;;;;;5.18;0.85;;;;;;;;;;10019254;28;20451;-67
2022/07/14 16:12:05;;;;;;;7.03;0.90;;;;;;;;;;10015288;28;20055;-66
2022/07/14 16:17:02;;;;;;;3.97;1.00;;;;;;;;;;9999569;28;20052;-66
2022/07/14 16:21:58;;;;;;;3.50;1.02;;;;;;;;;;9998815;29;20078;-64
2022/07/14 16:26:55;;;;;;;6.32;1.25;;;;;;;;;;10002246;28;20792;-64
2022/07/14 16:31:51;;;;;;;7.28;1.13;;;;;;;;;;10013149;28;20044;-64
2022/07/14 16:36:48;;;;;;;9.75;2.42;;;;;;;;;;10013673;28;20078;-64
2022/07/14 16:41:44;;;;;;;8.02;0.90;;;;;;;;;;10008302;28;20541;-66
2022/07/14 16:46:41;;;;;;;5.88;1.15;;;;;;;;;;10015160;28;20135;-65
2022/07/14 16:51:37;;;;;;;8.30;2.15;;;;;;;;;;10024511;28;20055;-64
2022/07/14 16:56:33;;;;;;;8.43;1.15;;;;;;;;;;10013199;28;20239;-65
2022/07/14 17:01:30;;;;;;;5.55;0.95;;;;;;;;;;10018683;28;20579;-66
2022/07/14 17:06:28;;;;;;;6.28;1.20;;;;;;;;;;10008555;28;20047;-67
2022/07/14 17:11:24;;;;;;;7.82;2.15;;;;;;;;;;10010491;28;20558;-66
2022/07/14 17:16:21;;;;;;;6.50;1.33;;;;;;;;;;10003947;28;20171;-66
2022/07/14 17:21:37;;;;;;;5.15;1.25;;;;;;;;;;10006453;28;20396;-66
2022/07/14 17:26:36;;;;;;;6.95;1.75;;;;;;;;;;10002645;28;20040;-66
2022/07/14 17:31:32;;;;;;;8.05;1.75;;;;;;;;;;10005927;28;20520;-67
2022/07/14 17:36:29;;;;;;;7.18;0.90;;;;;;;;;;10000686;28;20127;-66
2022/07/14 17:41:25;;;;;;;8.35;1.83;;;;;;;;;;10000356;28;20602;-66
2022/07/14 17:46:21;;;;;;;5.97;0.95;;;;;;;;;;9999334;28;20139;-67
2022/07/14 17:56:33;;;;;;;4.40;1.02;;;;;;;;;;10006309;28;20163;-67
2022/07/14 18:01:29;;;;;;;6.90;0.90;;;;;;;;;;10003530;28;20135;-67
2022/07/14 18:06:26;;;;;;;3.28;1.13;;;;;;;;;;10030207;28;20471;-68
2022/07/14 18:11:22;;;;;;;4.28;0.82;;;;;;;;;;10025038;28;20086;-68
2022/07/14 18:16:18;;;;;;;5.65;0.95;;;;;;;;;;10027524;28;20048;-67
2022/07/14 18:21:15;;;;;;;3.60;1.10;;;;;;;;;;10024322;28;20139;-68
2022/07/14 18:26:11;;;;;;;3.45;1.10;;;;;;;;;;10026530;28;20167;-67
2022/07/14 18:31:09;;;;;;;2.85;0.82;;;;;;;;;;10027693;28;20051;-67
2022/07/14 18:36:05;;;;;;;4.35;0.85;;;;;;;;;;10012832;28;20079;-67
2022/07/14 18:41:02;;;;;;;5.18;0.90;;;;;;;;;;10029701;28;20818;-67
2022/07/14 18:46:15;;;;;;;5.13;1.05;;;;;;;;;;10023456;28;20081;-68
2022/07/14 18:51:18;;;;;;;4.75;0.95;;;;;;;;;;10022295;28;20058;-68
2022/07/14 18:56:15;;;;;;;5.55;1.02;;;;;;;;;;10007962;28;20056;-68
2022/07/14 19:01:11;;;;;;;6.53;1.10;;;;;;;;;;10001281;28;20130;-70
2022/07/14 19:06:09;;;;;;;7.40;1.25;;;;;;;;;;9998409;28;20546;-68
2022/07/14 19:11:06;;;;;;;4.50;1.10;;;;;;;;;;10001969;28;20063;-68
2022/07/14 19:16:03;;;;;;;7.93;1.40;;;;;;;;;;9998547;28;20056;-68
2022/07/14 19:20:59;;;;;;;4.50;1.35;;;;;;;;;;10005459;28;20102;-68
2022/07/14 19:25:56;;;;;;;4.32;0.95;;;;;;;;;;10024149;28;20079;-69
2022/07/14 19:30:52;;;;;;;5.18;0.90;;;;;;;;;;10031401;28;20425;-69
2022/07/14 19:35:48;;;;;;;5.22;0.90;;;;;;;;;;10029745;28;20071;-68
2022/07/14 19:40:45;;;;;;;5.10;1.20;;;;;;;;;;10023537;28;20110;-68
2022/07/14 19:45:41;;;;;;;4.57;0.70;;;;;;;;;;10022771;28;20040;-65
2022/07/14 19:50:38;;;;;;;7.40;1.13;;;;;;;;;;10028194;28;20086;-65
2022/07/14 19:55:34;;;;;;;5.70;1.23;;;;;;;;;;10029459;28;20669;-67
2022/07/14 20:00:31;;;;;;;8.45;1.60;;;;;;;;;;10023593;28;20043;-68
2022/07/14 20:05:47;;;;;;;8.45;1.77;;;;;;;;;;10025387;28;20086;-68
2022/07/14 20:10:43;;;;;;;9.95;1.50;;;;;;;;;;10037498;28;20075;-68
2022/07/14 20:15:40;;;;;;;7.32;1.58;;;;;;;;;;10033802;28;20043;-68
2022/07/14 20:20:36;;;;;;;7.30;1.20;;;;;;;;;;10036317;28;20051;-67
2022/07/14 20:25:32;;;;;;;16.73;1.73;;;;;;;;;;10036438;28;20078;-67
2022/07/14 20:35:44;;;;;;;9.52;2.08;;;;;;;;;;10031214;28;20058;-68
2022/07/14 20:40:40;;;;;;;8.68;1.35;;;;;;;;;;10036730;28;20039;-68
2022/07/14 20:45:37;;;;;;;9.18;1.05;;;;;;;;;;10034383;28;20070;-68
2022/07/14 20:50:34;;;;;;;6.68;1.33;;;;;;;;;;10037095;28;20040;-66
2022/07/14 20:55:31;;;;;;;7.00;1.67;;;;;;;;;;10033810;28;20043;-66
2022/07/14 21:00:27;;;;;;;7.43;1.90;;;;;;;;;;10028297;28;20130;-66
2022/07/14 21:05:23;;;;;;;5.43;1.35;;;;;;;;;;10032600;28;20420;-68
2022/07/14 21:10:20;;;;;;;6.43;1.27;;;;;;;;;;10036060;28;20067;-66
2022/07/14 21:15:16;;;;;;;7.30;1.60;;;;;;;;;;10033094;28;20464;-66
2022/07/14 21:20:12;;;;;;;5.30;1.40;;;;;;;;;;10036272;28;20083;-66
2022/07/14 21:25:11;;;;;;;5.82;1.05;;;;;;;;;;10032337;28;20048;-67
2022/07/14 21:30:08;;;;;;;6.20;1.63;;;;;;;;;;10029697;28;20075;-69
2022/07/14 21:35:05;;;;;;;11.68;1.40;;;;;;;;;;10031655;28;20055;-68
2022/07/14 21:40:01;;;;;;;11.05;1.92;;;;;;;;;;10030984;29;20047;-69
2022/07/14 21:45:06;;;;;;;8.73;1.10;;;;;;;;;;10025192;28;20663;-68
2022/07/14 21:50:03;;;;;;;12.15;2.25;;;;;;;;;;10031272;28;20523;-67
2022/07/14 21:55:00;;;;;;;8.30;1.27;;;;;;;;;;10029439;29;20079;-66
2022/07/14 21:59:56;;;;;;;8.23;1.20;;;;;;;;;;10032191;28;20098;-66
2022/07/14 22:04:52;;;;;;;9.85;1.55;;;;;;;;;;10020372;28;20063;-67
2022/07/14 22:09:49;;;;;;;6.78;1.20;;;;;;;;;;10033288;28;20102;-68
2022/07/14 22:14:45;;;;;;;5.78;1.02;;;;;;;;;;10031563;28;20067;-69
2022/07/14 22:19:42;;;;;;;7.03;1.23;;;;;;;;;;10026470;28;20443;-68
2022/07/14 22:24:40;;;;;;;5.80;1.23;;;;;;;;;;10030176;28;20140;-68
2022/07/14 22:29:37;;;;;;;10.50;1.60;;;;;;;;;;10026767;28;20055;-67
2022/07/14 22:34:33;;;;;;;12.10;1.35;;;;;;;;;;10020312;28;20139;-67
2022/07/14 22:39:30;;;;;;;6.43;1.10;;;;;;;;;;10038345;28;20559;-67
2022/07/14 22:44:26;;;;;;;10.50;2.22;;;;;;;;;;10027807;28;20088;-67
2022/07/14 22:49:22;;;;;;;8.75;2.00;;;;;;;;;;10027011;28;20479;-69
2022/07/14 22:54:19;;;;;;;12.45;1.88;;;;;;;;;;10027462;28;20086;-68
2022/07/14 22:59:16;;;;;;;9.43;1.83;;;;;;;;;;10029830;28;20055;-68
2022/07/14 23:04:12;;;;;;;13.18;2.13;;;;;;;;;;10027632;28;20083;-67
2022/07/14 23:09:12;;;;;;;7.97;1.10;;;;;;;;;;10031372;28;20102;-69
2022/07/14 23:14:08;;;;;;;8.15;1.33;;;;;;;;;;10025998;28;20142;-69
2022/07/14 23:19:05;;;;;;;8.23;1.20;;;;;;;;;;10028696;28;20147;-69
2022/07/14 23:24:01;;;;;;;7.95;1.25;;;;;;;;;;10028271;28;20135;-69
2022/07/14 23:28:57;;;;;;;7.10;1.35;;;;;;;;;;10028278;28;20044;-69
2022/07/14 23:33:54;;;;;;;6.38;0.80;;;;;;;;;;10025769;28;20059;-69
2022/07/14 23:38:51;;;;;;;12.77;1.27;;;;;;;;;;10032694;28;20627;-69
2022/07/14 23:43:47;;;;;;;10.85;2.25;;;;;;;;;;10039242;28;20566;-69
2022/07/14 23:48:43;;;;;;;15.52;2.03;;;;;;;;;;10030592;28;20135;-66
2022/07/14 23:53:40;;;;;;;8.02;1.85;;;;;;;;;;10016598;28;20488;-66
2022/07/14 23:58:37;;;;;;;11.05;1.35;;;;;;;;;;10018027;28;20138;-66
